Time;durP1;ratioP1;P1;durP2;ratioP2;P2;SDS_P1;SDS_P2;PMS_P1;PMS_P2;Temp;Humidity;BMP_temperature;BMP_pressure;BME280_temperature;BME280_humidity;BME280_pressure;Samples;Min_cycle;Max_cycle;Signal;HPM_P1;HPM_P2
2022/07/13 00:00:34;;;;;;;;;6.25;6.25;;;;;30.30;26.07;101580.53;2078693;28;47979;-53
2022/07/13 00:01:34;;;;;;;;;7.75;7.75;;;;;30.29;25.99;101584.28;2077108;28;47536;-55
2022/07/13 00:02:35;;;;;;;;;5.75;5.75;;;;;30.29;25.71;101584.28;2106434;27;47926;-55
2022/07/13 00:03:36;;;;;;;;;4.75;4.75;;;;;30.27;26.39;101589.88;2102582;27;47550;-55
2022/07/13 00:04:36;;;;;;;;;4.00;4.00;;;;;30.28;26.24;101590.75;2107356;27;47726;-55
2022/07/13 00:05:36;;;;;;;;;4.75;4.75;;;;;30.26;26.04;101587.28;2101085;27;47450;-54
2022/07/13 00:06:37;;;;;;;;;2.25;2.25;;;;;30.25;25.97;101589.16;2107053;27;47496;-56
2022/07/13 00:07:37;;;;;;;;;5.75;5.75;;;;;30.23;26.35;101585.69;2101971;27;47456;-53
2022/07/13 00:08:38;;;;;;;;;6.25;5.00;;;;;30.23;26.39;101582.94;2098065;28;46887;-55
2022/07/13 00:09:38;;;;;;;;;5.50;5.50;;;;;30.22;25.70;101581.22;2093113;28;45860;-55
2022/07/13 00:10:39;;;;;;;;;4.50;4.25;;;;;30.22;25.93;101585.81;2105165;27;46225;-54
2022/07/13 00:11:39;;;;;;;;;6.00;6.00;;;;;30.21;26.23;101581.34;2102959;27;47982;-55
2022/07/13 00:12:39;;;;;;;;;5.00;4.25;;;;;30.20;25.93;101583.22;2104904;27;47570;-56
2022/07/13 00:13:40;;;;;;;;;6.50;5.75;;;;;30.19;26.22;101584.22;2093603;28;47316;-54
2022/07/13 00:14:40;;;;;;;;;4.75;4.75;;;;;30.18;26.56;101580.63;2093215;28;45648;-53
2022/07/13 00:15:41;;;;;;;;;4.00;4.00;;;;;30.17;26.02;101578.91;2101573;27;47806;-55
2022/07/13 00:16:41;;;;;;;;;9.00;5.75;;;;;30.17;26.47;101581.63;2108911;27;46760;-54
2022/07/13 00:17:41;;;;;;;;;3.00;3.00;;;;;30.18;25.86;101577.03;2100850;27;47361;-56
2022/07/13 00:18:42;;;;;;;;;4.50;4.50;;;;;30.16;25.68;101581.78;2104536;27;47427;-54
2022/07/13 00:19:42;;;;;;;;;5.00;5.00;;;;;30.16;26.42;101576.31;2099476;28;46913;-56
2022/07/13 00:20:43;;;;;;;;;5.25;5.25;;;;;30.14;26.38;101579.19;2109740;27;45155;-56
2022/07/13 00:21:44;;;;;;;;;3.60;3.00;;;;;30.13;26.20;101577.47;2097473;27;46887;-55
2022/07/13 00:22:44;;;;;;;;;4.00;4.00;;;;;30.12;26.35;101578.47;2106452;27;47940;-56
2022/07/13 00:23:44;;;;;;;;;6.25;5.50;;;;;30.12;25.99;101572.13;2100930;27;48032;-56
2022/07/13 00:24:45;;;;;;;;;7.00;6.00;;;;;30.09;26.09;101575.97;2091748;28;46933;-55
2022/07/13 00:25:45;;;;;;;;;5.00;5.00;;;;;30.09;25.94;101575.97;2080736;28;46678;-54
2022/07/13 00:26:46;;;;;;;;;7.25;6.25;;;;;30.09;25.69;101578.72;2098603;27;46642;-55
2022/07/13 00:27:46;;;;;;;;;5.50;4.25;;;;;30.08;25.93;101576.13;2097589;27;47547;-55
2022/07/13 00:28:46;;;;;;;;;6.25;5.75;;;;;30.08;26.26;101579.72;2105641;27;45442;-56
2022/07/13 00:29:47;;;;;;;;;7.50;6.00;;;;;30.07;26.44;101579.88;2091809;28;46282;-55
2022/07/13 00:30:47;;;;;;;;;6.00;6.00;;;;;30.06;26.01;101580.88;2096545;28;46849;-54
2022/07/13 00:31:48;;;;;;;;;4.25;4.25;;;;;30.05;26.38;101580.00;2102094;27;46809;-54
2022/07/13 00:32:48;;;;;;;;;5.50;5.50;;;;;30.05;26.22;101576.38;2096639;28;47963;-53
2022/07/13 00:33:48;;;;;;;;;3.00;1.25;;;;;30.04;26.04;101580.97;2094146;28;47732;-54
2022/07/13 00:34:49;;;;;;;;;4.00;4.00;;;;;30.03;26.34;101582.00;2106463;27;47065;-55
2022/07/13 00:35:49;;;;;;;;;4.75;4.75;;;;;30.02;26.26;101574.78;2098762;27;46751;-55
2022/07/13 00:36:49;;;;;;;;;6.75;6.25;;;;;30.02;26.42;101574.78;2106420;27;47297;-53
2022/07/13 00:37:50;;;;;;;;;5.00;5.00;;;;;30.01;25.95;101577.66;2098679;27;47589;-54
2022/07/13 00:38:50;;;;;;;;;5.00;5.00;;;;;30.00;26.20;101576.81;2105147;27;47469;-54
2022/07/13 00:39:51;;;;;;;;;6.50;5.00;;;;;29.99;26.29;101569.59;2101142;27;47044;-53
2022/07/13 00:40:51;;;;;;;;;4.00;4.00;;;;;29.99;26.25;101575.06;2107502;27;45688;-52
2022/07/13 00:41:51;;;;;;;;;5.25;5.25;;;;;29.99;26.54;101579.69;2102049;27;47716;-54
2022/07/13 00:42:52;;;;;;;;;6.25;6.00;;;;;29.99;26.67;101574.22;2107899;27;47438;-51
2022/07/13 00:43:52;;;;;;;;;7.00;5.75;;;;;29.97;26.59;101566.09;2098501;27;47378;-56
2022/07/13 00:44:53;;;;;;;;;5.75;5.75;;;;;29.98;26.48;101572.44;2107467;27;46803;-53
2022/07/13 00:45:53;;;;;;;;;5.75;5.75;;;;;29.97;26.95;101559.75;2101821;27;46993;-53
2022/07/13 00:46:54;;;;;;;;;5.25;5.25;;;;;29.97;26.75;101571.56;2107620;27;47275;-54
2022/07/13 00:47:56;;;;;;;;;5.80;5.80;;;;;29.96;26.38;101572.59;2102815;27;45055;-55
2022/07/13 00:48:58;;;;;;;;;5.80;5.80;;;;;29.95;26.37;101570.00;2109779;27;47698;-53
2022/07/13 00:50:00;;;;;;;;;8.00;8.00;;;;;29.95;26.74;101570.84;2102041;27;47050;-54
2022/07/13 00:51:01;;;;;;;;;6.20;6.20;;;;;29.93;26.86;101567.41;2104839;27;47988;-55
2022/07/13 00:52:02;;;;;;;;;5.25;5.25;;;;;29.93;26.89;101563.78;2103637;27;47682;-54
2022/07/13 00:53:02;;;;;;;;;4.60;4.60;;;;;29.91;26.96;101563.06;2107041;27;47159;-54
2022/07/13 00:54:04;;;;;;;;;6.00;6.00;;;;;29.90;26.49;101564.94;2102777;27;45584;-53
2022/07/13 00:55:09;;;;;;;;;5.20;5.20;;;;;29.89;26.56;101564.06;2104091;27;47846;-55
2022/07/13 00:56:10;;;;;;;;;5.80;5.80;;;;;29.87;26.46;101557.88;2099444;27;48087;-55
2022/07/13 00:57:14;;;;;;;;;6.80;6.00;;;;;29.87;26.78;101560.63;2085046;28;48047;-53
2022/07/13 00:58:14;;;;;;;;;4.20;4.20;;;;;29.86;26.60;101552.56;2087459;28;46429;-55
2022/07/13 00:59:15;;;;;;;;;5.00;5.00;;;;;29.85;26.84;101557.13;2100168;27;46648;-54
2022/07/13 01:00:16;;;;;;;;;3.00;3.00;;;;;29.85;26.86;101556.25;2106293;27;47644;-54
2022/07/13 01:01:17;;;;;;;;;3.00;3.00;;;;;29.83;26.61;101561.88;2104551;27;47631;-55
2022/07/13 01:02:17;;;;;;;;;7.50;5.50;;;;;29.83;26.55;101550.94;2104556;27;47198;-55
2022/07/13 01:03:18;;;;;;;;;4.75;4.00;;;;;29.83;26.65;101563.75;2101596;27;47799;-54
2022/07/13 01:04:22;;;;;;;;;4.75;4.75;;;;;29.81;27.05;101558.41;2073951;28;44957;-53
2022/07/13 01:05:22;;;;;;;;;4.20;3.40;;;;;29.80;26.47;101562.16;2077994;28;47677;-55
2022/07/13 01:06:23;;;;;;;;;6.00;6.00;;;;;29.80;26.90;101555.81;2104416;27;45900;-55
2022/07/13 01:07:24;;;;;;;;;6.25;5.00;;;;;29.80;26.78;101544.88;2101715;27;47521;-55
2022/07/13 01:08:25;;;;;;;;;4.40;4.40;;;;;29.78;27.04;101555.97;2104029;27;47618;-53
2022/07/13 01:09:26;;;;;;;;;4.00;3.00;;;;;29.79;26.46;101554.97;2100689;27;47860;-56
2022/07/13 01:10:26;;;;;;;;;5.00;5.00;;;;;29.78;26.53;101547.75;2104300;27;47680;-55
2022/07/13 01:11:27;;;;;;;;;4.75;4.75;;;;;29.78;26.65;101555.09;2101206;27;47590;-51
2022/07/13 01:12:29;;;;;;;;;3.00;3.00;;;;;29.78;26.98;101555.09;2082901;28;45733;-54
2022/07/13 01:13:30;;;;;;;;;5.60;4.80;;;;;29.78;26.59;101555.97;2071451;28;47744;-53
2022/07/13 01:14:31;;;;;;;;;5.00;4.00;;;;;29.76;26.56;101555.25;2086178;28;46602;-55
2022/07/13 01:15:32;;;;;;;;;4.00;4.00;;;;;29.76;26.30;101554.38;2100979;27;47200;-56
2022/07/13 01:16:34;;;;;;;;;3.40;3.00;;;;;29.75;26.58;101553.50;2104171;27;47856;-55
2022/07/13 01:17:36;;;;;;;;;2.40;2.40;;;;;29.76;26.83;101557.09;2101955;27;47526;-53
2022/07/13 01:18:39;;;;;;;;;5.80;5.80;;;;;29.74;26.85;101557.25;2105037;27;48153;-53
2022/07/13 01:19:40;;;;;;;;;5.20;4.00;;;;;29.74;26.62;101554.50;2100839;27;48085;-55
2022/07/13 01:20:42;;;;;;;;;2.75;2.50;;;;;29.73;26.90;101558.25;2102443;27;47640;-55
2022/07/13 01:21:51;;;;;;;;;5.20;5.20;;;;;29.74;26.76;101554.50;2082793;28;46762;-54
2022/07/13 01:22:52;;;;;;;;;5.60;4.60;;;;;29.73;26.86;101558.25;2090480;28;47562;-54
2022/07/13 01:23:53;;;;;;;;;4.40;4.40;;;;;29.72;26.82;101553.75;2102027;27;46956;-53
2022/07/13 01:24:54;;;;;;;;;6.00;6.00;;;;;29.72;26.77;101553.75;2106160;27;47623;-55
2022/07/13 01:25:56;;;;;;;;;5.00;5.00;;;;;29.71;27.02;101553.91;2101745;27;47368;-55
2022/07/13 01:26:59;;;;;;;;;6.20;6.20;;;;;29.72;26.75;101552.88;2104115;27;47695;-54
2022/07/13 01:27:59;;;;;;;;;5.20;5.20;;;;;29.71;26.72;101553.91;2102858;27;46667;-53
2022/07/13 01:28:59;;;;;;;;;6.50;5.75;;;;;29.70;26.79;101552.16;2105133;27;47795;-53
2022/07/13 01:30:00;;;;;;;;;4.00;4.00;;;;;29.69;26.65;101558.66;2101728;27;46803;-53
2022/07/13 01:31:01;;;;;;;;;6.00;6.00;;;;;29.69;26.58;101558.66;2104744;27;47459;-54
2022/07/13 01:32:01;;;;;;;;;6.00;6.00;;;;;29.68;26.69;101557.78;2102259;27;47314;-55
2022/07/13 01:33:01;;;;;;;;;7.00;7.00;;;;;29.68;26.78;101556.91;2107324;27;46575;-54
2022/07/13 01:34:03;;;;;;;;;4.00;4.00;;;;;29.68;26.81;101565.13;2102295;27;47579;-54
2022/07/13 01:35:04;;;;;;;;;7.60;6.00;;;;;29.66;27.18;101559.78;2107105;27;46905;-54
2022/07/13 01:36:04;;;;;;;;;5.00;4.25;;;;;29.66;27.16;101561.66;2101883;27;47217;-52
2022/07/13 01:37:05;;;;;;;;;3.00;2.75;;;;;29.65;27.25;101558.06;2091259;28;47238;-56
2022/07/13 01:38:05;;;;;;;;;5.75;5.75;;;;;29.64;27.52;101553.59;2091900;28;46980;-55
2022/07/13 01:39:06;;;;;;;;;6.50;4.00;;;;;29.65;27.21;101554.47;2097371;27;47415;-51
2022/07/13 01:40:07;;;;;;;;;5.00;5.00;;;;;29.64;27.03;101559.06;2103443;27;47154;-55
2022/07/13 01:41:08;;;;;;;;;5.80;5.20;;;;;29.64;26.96;101558.19;2104097;27;47150;-50
2022/07/13 01:42:08;;;;;;;;;7.00;6.00;;;;;29.62;26.92;101550.13;2102526;27;46592;-54
2022/07/13 01:43:08;;;;;;;;;6.00;6.00;;;;;29.62;27.22;101549.28;2105802;27;47710;-53
2022/07/13 01:44:09;;;;;;;;;5.25;5.25;;;;;29.60;27.03;101549.38;2101145;27;47614;-53
2022/07/13 01:45:10;;;;;;;;;6.75;6.75;;;;;29.60;27.16;101552.13;2103015;27;47733;-52
2022/07/13 01:46:11;;;;;;;;;7.60;6.60;;;;;29.59;27.07;101543.03;2099772;27;47120;-53
2022/07/13 01:47:12;;;;;;;;;6.25;6.25;;;;;29.59;27.35;101550.38;2101772;27;47725;-56
2022/07/13 01:48:12;;;;;;;;;4.75;4.75;;;;;29.59;27.16;101544.91;2103895;27;47426;-54
2022/07/13 01:49:12;;;;;;;;;9.00;8.00;;;;;29.58;27.21;101548.66;2102876;27;47524;-54
2022/07/13 01:50:15;;;;;;;;;7.50;7.50;;;;;29.57;27.45;101545.06;2104124;27;47528;-55
2022/07/13 01:51:15;;;;;;;;;4.00;3.20;;;;;29.58;27.39;101545.91;2102907;28;48056;-56
2022/07/13 01:52:16;;;;;;;;;5.50;5.50;;;;;29.57;27.14;101544.19;2104091;27;47660;-55
2022/07/13 01:53:16;;;;;;;;;6.50;6.50;;;;;29.58;27.37;101545.91;2100144;27;47779;-54
2022/07/13 01:54:16;;;;;;;;;6.50;6.50;;;;;29.57;27.34;101544.19;2103341;27;47353;-53
2022/07/13 01:55:18;;;;;;;;;6.00;6.00;;;;;29.57;27.20;101546.94;2102512;27;47587;-54
2022/07/13 01:56:18;;;;;;;;;5.60;5.60;;;;;29.55;27.49;101552.53;2106338;27;47313;-55
2022/07/13 01:57:18;;;;;;;;;5.75;5.25;;;;;29.55;27.62;101546.19;2102596;27;47882;-56
2022/07/13 01:58:19;;;;;;;;;6.25;6.25;;;;;29.55;27.43;101551.66;2107054;27;47673;-54
2022/07/13 01:59:19;;;;;;;;;6.25;6.25;;;;;29.54;27.67;101550.81;2101558;27;46597;-53
2022/07/13 02:00:20;;;;;;;;;5.25;5.25;;;;;29.52;27.40;101544.59;2106052;27;47171;-55
2022/07/13 02:01:21;;;;;;;;;9.00;7.60;;;;;29.54;27.67;101547.19;2102312;28;45952;-54
2022/07/13 02:02:21;;;;;;;;;5.50;5.50;;;;;29.53;28.03;101545.47;2105657;27;47600;-54
2022/07/13 02:03:22;;;;;;;;;5.25;4.50;;;;;29.52;28.21;101538.28;2099622;27;47516;-51
2022/07/13 02:04:22;;;;;;;;;5.75;5.75;;;;;29.52;27.73;101532.81;2107719;27;48141;-53
2022/07/13 02:05:25;;;;;;;;;4.75;4.75;;;;;29.51;27.89;101542.88;2097113;27;48125;-55
2022/07/13 02:06:25;;;;;;;;;8.00;8.00;;;;;29.50;27.85;101538.41;2104892;27;48192;-51
2022/07/13 02:07:26;;;;;;;;;5.25;5.25;;;;;29.51;27.93;101542.00;2101050;27;47512;-55
2022/07/13 02:08:27;;;;;;;;;6.75;6.00;;;;;29.50;27.83;101537.53;2107440;27;48158;-54
2022/07/13 02:09:27;;;;;;;;;5.00;5.00;;;;;29.49;27.97;101533.09;2100606;27;46296;-52
2022/07/13 02:10:37;;;;;;;;;5.50;5.00;;;;;29.48;27.77;101534.94;2103621;27;46602;-55
2022/07/13 02:11:37;;;;;;;;;8.40;8.40;;;;;29.48;28.50;101534.09;2091888;28;48008;-51
2022/07/13 02:12:38;;;;;;;;;5.25;5.25;;;;;29.47;28.01;101535.94;2099087;28;46894;-54
2022/07/13 02:13:38;;;;;;;;;5.75;5.75;;;;;29.47;28.25;101535.06;2101474;27;47755;-55
2022/07/13 02:14:39;;;;;;;;;6.50;6.50;;;;;29.46;28.11;101530.56;2105128;27;48270;-55
2022/07/13 02:15:40;;;;;;;;;6.25;6.00;;;;;29.46;28.31;101534.16;2101171;27;47661;-56
2022/07/13 02:16:40;;;;;;;;;7.80;7.80;;;;;29.46;28.18;101528.69;2100734;27;47974;-53
2022/07/13 02:17:41;;;;;;;;;7.75;7.75;;;;;29.46;28.35;101522.34;2100200;28;47401;-56
2022/07/13 02:18:42;;;;;;;;;9.00;7.00;;;;;29.47;28.16;101529.59;2093382;28;48154;-55
2022/07/13 02:19:42;;;;;;;;;6.20;6.20;;;;;29.44;28.42;101522.50;2090691;28;47977;-53
2022/07/13 02:20:43;;;;;;;;;3.75;3.75;;;;;29.45;28.43;101524.22;2103655;27;47255;-54
2022/07/13 02:21:43;;;;;;;;;5.00;5.00;;;;;29.43;27.91;101518.03;2101143;27;47399;-52
2022/07/13 02:22:45;;;;;;;;;5.00;5.00;;;;;29.43;28.66;101515.28;2104653;27;47928;-53
2022/07/13 02:23:45;;;;;;;;;9.00;8.20;;;;;29.42;28.31;101520.91;2097597;27;48015;-53
2022/07/13 02:24:45;;;;;;;;;7.50;7.00;;;;;29.41;28.28;101517.31;2103648;27;47546;-56
2022/07/13 02:25:46;;;;;;;;;6.50;6.50;;;;;29.41;28.31;101525.50;2101192;27;47866;-53
2022/07/13 02:26:46;;;;;;;;;8.00;6.25;;;;;29.41;28.27;101521.91;2104380;27;47649;-55
2022/07/13 02:27:46;;;;;;;;;7.75;6.50;;;;;29.41;28.32;101519.19;2100868;27;48065;-55
2022/07/13 02:28:47;;;;;;;;;5.00;5.00;;;;;29.40;28.41;101522.91;2104234;27;46663;-52
2022/07/13 02:29:47;;;;;;;;;5.75;5.75;;;;;29.39;28.15;101523.91;2100717;27;47668;-55
2022/07/13 02:30:48;;;;;;;;;7.00;6.00;;;;;29.39;28.06;101522.06;2105011;27;46459;-55
2022/07/13 02:31:48;;;;;;;;;7.00;7.00;;;;;29.39;28.25;101518.44;2098420;27;47296;-54
2022/07/13 02:32:48;;;;;;;;;5.00;5.00;;;;;29.38;28.41;101514.00;2106578;27;47734;-56
2022/07/13 02:33:49;;;;;;;;;5.50;5.50;;;;;29.39;28.14;101516.59;2098740;27;47661;-52
2022/07/13 02:34:49;;;;;;;;;4.75;4.50;;;;;29.39;27.63;101512.97;2103230;27;45092;-55
2022/07/13 02:35:49;;;;;;;;;6.00;6.00;;;;;29.39;27.92;101515.72;2102716;27;47270;-55
2022/07/13 02:36:50;;;;;;;;;8.75;7.50;;;;;29.38;27.95;101512.13;2106758;27;48103;-55
2022/07/13 02:37:50;;;;;;;;;6.00;6.00;;;;;29.39;28.06;101515.72;2101262;27;47873;-53
2022/07/13 02:38:51;;;;;;;;;7.00;6.00;;;;;29.38;28.01;101514.00;2108050;27;47436;-54
2022/07/13 02:39:53;;;;;;;;;7.00;6.50;;;;;29.37;28.20;101513.13;2091701;28;47949;-55
2022/07/13 02:40:53;;;;;;;;;5.40;4.80;;;;;29.38;27.86;101509.38;2095439;28;47860;-54
2022/07/13 02:41:53;;;;;;;;;7.00;6.75;;;;;29.37;27.83;101512.25;2102062;27;47626;-55
2022/07/13 02:42:54;;;;;;;;;4.50;4.50;;;;;29.37;27.79;101504.06;2107103;27;47566;-55
2022/07/13 02:43:54;;;;;;;;;7.50;5.75;;;;;29.37;27.69;101512.25;2101925;27;47960;-55
2022/07/13 02:44:54;;;;;;;;;6.25;6.25;;;;;29.37;27.71;101510.38;2110469;27;47551;-55
2022/07/13 02:45:55;;;;;;;;;6.75;5.00;;;;;29.37;27.63;101506.78;2103023;27;47476;-53
2022/07/13 02:46:55;;;;;;;;;7.00;7.00;;;;;29.37;27.44;101501.31;2109702;27;47325;-52
2022/07/13 02:47:56;;;;;;;;;5.25;5.25;;;;;29.38;27.71;101506.66;2100640;27;47238;-52
2022/07/13 02:48:56;;;;;;;;;5.25;5.25;;;;;29.38;27.72;101500.31;2101818;27;47452;-56
2022/07/13 02:49:57;;;;;;;;;5.25;5.00;;;;;29.37;27.68;101507.66;2102889;27;47592;-56
2022/07/13 02:50:57;;;;;;;;;4.75;4.75;;;;;29.37;27.93;101507.66;2082362;28;47982;-54
2022/07/13 02:51:57;;;;;;;;;6.25;6.00;;;;;29.37;27.47;101507.66;2077628;28;45590;-55
2022/07/13 02:52:58;;;;;;;;;8.50;7.50;;;;;29.38;27.70;101505.78;2102129;28;47389;-55
2022/07/13 02:53:58;;;;;;;;;6.75;5.25;;;;;29.37;27.58;101502.19;2095410;28;46288;-53
2022/07/13 02:54:58;;;;;;;;;8.00;7.50;;;;;29.37;27.62;101504.91;2096976;28;47618;-55
2022/07/13 02:55:59;;;;;;;;;6.00;5.00;;;;;29.38;27.61;101505.78;2084882;28;46515;-53
2022/07/13 02:56:59;;;;;;;;;5.75;5.75;;;;;29.38;27.42;101509.38;2085415;28;47008;-53
2022/07/13 02:58:00;;;;;;;;;4.25;4.25;;;;;29.37;27.46;101507.66;2094756;28;47814;-53
2022/07/13 02:59:00;;;;;;;;;6.50;6.50;;;;;29.38;27.74;101506.66;2098958;28;47636;-55
2022/07/13 03:00:01;;;;;;;;;4.25;4.25;;;;;29.38;27.51;101503.06;2090527;28;47941;-55
2022/07/13 03:01:01;;;;;;;;;6.75;6.00;;;;;29.37;27.56;101501.31;2097560;28;47497;-51
2022/07/13 03:02:03;;;;;;;;;5.75;5.75;;;;;29.37;27.69;101507.66;2093554;28;47486;-55
2022/07/13 03:03:04;;;;;;;;;5.80;5.80;;;;;29.37;27.14;101504.91;2096473;28;47321;-55
2022/07/13 03:04:04;;;;;;;;;8.00;6.75;;;;;29.37;27.56;101510.38;2090101;28;47618;-53
2022/07/13 03:05:05;;;;;;;;;6.00;6.00;;;;;29.37;27.31;101507.66;2092046;28;47446;-55
2022/07/13 03:06:05;;;;;;;;;5.00;5.00;;;;;29.37;27.58;101513.13;2091735;28;46590;-55
2022/07/13 03:07:06;;;;;;;;;5.50;5.50;;;;;29.37;27.64;101513.13;2096303;28;47387;-56
2022/07/13 03:08:06;;;;;;;;;6.75;6.75;;;;;29.36;27.27;101503.19;2090362;28;47585;-54
2022/07/13 03:09:06;;;;;;;;;7.25;5.25;;;;;29.36;27.57;101510.53;2096764;28;46991;-55
2022/07/13 03:10:07;;;;;;;;;5.75;5.75;;;;;29.35;27.37;101506.94;2095503;28;47268;-52
2022/07/13 03:11:08;;;;;;;;;7.75;6.00;;;;;29.36;27.34;101505.06;2096076;28;47601;-55
2022/07/13 03:12:08;;;;;;;;;5.50;5.50;;;;;29.35;27.53;101508.75;2092811;28;47827;-55
2022/07/13 03:13:09;;;;;;;;;5.75;5.75;;;;;29.35;27.51;101508.75;2096564;28;47626;-52
2022/07/13 03:14:09;;;;;;;;;7.75;5.75;;;;;29.35;27.50;101509.66;2095932;28;48174;-53
2022/07/13 03:15:10;;;;;;;;;6.25;4.50;;;;;29.35;27.50;101508.75;2094208;28;47341;-52
2022/07/13 03:16:10;;;;;;;;;5.25;5.25;;;;;29.36;27.66;101516.88;2096379;28;48098;-55
2022/07/13 03:17:11;;;;;;;;;5.75;5.50;;;;;29.35;27.81;101509.66;2096349;28;47402;-54
2022/07/13 03:18:11;;;;;;;;;15.75;15.75;;;;;29.35;27.53;101508.75;2077381;28;46300;-53
2022/07/13 03:19:12;;;;;;;;;14.75;13.00;;;;;29.34;27.65;101507.91;2070585;28;47718;-54
2022/07/13 03:20:12;;;;;;;;;10.00;10.00;;;;;29.35;27.49;101511.50;2094886;28;47499;-54
2022/07/13 03:21:12;;;;;;;;;14.25;13.00;;;;;29.34;27.50;101507.03;2095229;28;47939;-55
2022/07/13 03:22:13;;;;;;;;;13.50;13.50;;;;;29.34;27.88;101507.03;2097502;28;47681;-54
2022/07/13 03:23:13;;;;;;;;;9.50;9.50;;;;;29.33;27.96;101502.56;2095518;28;45613;-53
2022/07/13 03:24:14;;;;;;;;;11.00;11.00;;;;;29.33;27.86;101505.31;2098046;28;46335;-56
2022/07/13 03:25:14;;;;;;;;;9.50;9.50;;;;;29.33;27.92;101508.03;2073833;28;47210;-55
2022/07/13 03:26:14;;;;;;;;;6.75;6.75;;;;;29.33;27.90;101517.09;2082277;28;44964;-55
2022/07/13 03:27:15;;;;;;;;;9.00;8.75;;;;;29.31;27.92;101510.91;2094325;28;47958;-53
2022/07/13 03:28:15;;;;;;;;;6.50;6.50;;;;;29.31;28.12;101516.38;2088264;28;48817;-50
2022/07/13 03:29:16;;;;;;;;;7.25;7.25;;;;;29.29;28.21;101507.44;2086466;28;47553;-55
2022/07/13 03:30:16;;;;;;;;;6.50;6.50;;;;;29.29;28.13;101507.44;2100276;28;47484;-56
2022/07/13 03:31:17;;;;;;;;;7.00;5.00;;;;;29.26;27.76;101508.59;2093722;28;48031;-54
2022/07/13 03:32:18;;;;;;;;;5.00;5.00;;;;;29.25;27.92;101509.59;2097841;28;45786;-58
2022/07/13 03:33:18;;;;;;;;;6.50;5.50;;;;;29.25;27.92;101509.59;2093889;28;47952;-55
2022/07/13 03:34:19;;;;;;;;;7.75;7.00;;;;;29.24;27.92;101507.00;2100373;28;47795;-54
2022/07/13 03:35:19;;;;;;;;;8.75;8.50;;;;;29.23;27.87;101516.22;2095321;28;46632;-55
2022/07/13 03:36:19;;;;;;;;;5.00;5.00;;;;;29.21;28.03;101508.13;2100502;28;46387;-55
2022/07/13 03:37:20;;;;;;;;;5.25;5.00;;;;;29.21;28.12;101508.13;2094432;28;46638;-55
2022/07/13 03:38:20;;;;;;;;;5.00;5.00;;;;;29.20;28.14;101511.84;2099806;28;46721;-53
2022/07/13 03:39:21;;;;;;;;;5.50;5.50;;;;;29.20;28.09;101505.53;2076526;28;46438;-54
2022/07/13 03:40:21;;;;;;;;;7.00;7.00;;;;;29.19;28.36;101507.38;2079273;28;47630;-56
2022/07/13 03:41:22;;;;;;;;;7.25;7.25;;;;;29.20;28.39;101505.53;2096704;28;47633;-53
2022/07/13 03:42:22;;;;;;;;;7.25;7.25;;;;;29.19;28.42;101504.66;2099873;28;47802;-56
2022/07/13 03:43:22;;;;;;;;;8.25;8.00;;;;;29.19;28.39;101509.25;2094661;28;47647;-56
2022/07/13 03:44:23;;;;;;;;;7.00;7.00;;;;;29.19;27.91;101506.53;2097424;28;47384;-53
2022/07/13 03:45:23;;;;;;;;;9.25;8.50;;;;;29.17;28.23;101503.94;2094405;28;48003;-54
2022/07/13 03:46:24;;;;;;;;;8.00;7.00;;;;;29.18;28.80;101504.78;2098522;28;47414;-54
2022/07/13 03:47:24;;;;;;;;;9.00;9.00;;;;;29.17;28.54;101511.25;2095351;28;47841;-53
2022/07/13 03:48:24;;;;;;;;;8.75;6.75;;;;;29.18;28.42;101510.25;2096407;28;47256;-56
2022/07/13 03:49:25;;;;;;;;;7.00;7.00;;;;;29.17;28.46;101511.25;2095511;28;47806;-54
2022/07/13 03:50:25;;;;;;;;;8.00;6.00;;;;;29.17;28.49;101514.88;2102640;27;47589;-55
2022/07/13 03:51:26;;;;;;;;;6.75;6.75;;;;;29.17;28.39;101516.72;2104067;27;46963;-55
2022/07/13 03:52:26;;;;;;;;;7.00;7.00;;;;;29.17;28.48;101508.53;2107377;27;47082;-55
2022/07/13 03:53:27;;;;;;;;;9.25;7.75;;;;;29.17;28.04;101519.47;2100214;27;47413;-55
2022/07/13 03:54:27;;;;;;;;;7.00;6.75;;;;;29.15;28.68;101514.13;2094455;28;46779;-56
2022/07/13 03:55:27;;;;;;;;;6.25;6.25;;;;;29.15;28.29;101507.81;2092751;28;47326;-55
2022/07/13 03:56:28;;;;;;;;;6.00;6.00;;;;;29.14;28.36;101517.88;2108175;27;47346;-56
2022/07/13 03:57:28;;;;;;;;;7.25;7.25;;;;;29.15;28.48;101518.75;2093678;28;47741;-56
2022/07/13 03:58:29;;;;;;;;;8.25;8.00;;;;;29.14;28.74;101517.88;2099256;28;46671;-56
2022/07/13 03:59:29;;;;;;;;;7.25;7.25;;;;;29.14;28.75;101517.00;2101383;27;47069;-54
2022/07/13 04:00:29;;;;;;;;;2.00;2.00;;;;;29.13;28.62;101521.59;2102780;27;47528;-55
2022/07/13 04:01:30;;;;;;;;;10.00;7.00;;;;;29.13;28.48;101513.41;2099434;27;45486;-55
2022/07/13 04:02:30;;;;;;;;;6.25;6.00;;;;;29.13;28.66;101515.28;2105251;27;46525;-55
2022/07/13 04:03:30;;;;;;;;;9.25;9.25;;;;;29.12;28.90;101516.28;2102008;27;45761;-56
2022/07/13 04:04:31;;;;;;;;;8.50;6.50;;;;;29.13;28.63;101515.28;2091475;28;47123;-56
2022/07/13 04:05:31;;;;;;;;;6.50;6.50;;;;;29.13;28.70;101512.53;2085493;28;47142;-55
2022/07/13 04:06:32;;;;;;;;;6.25;6.25;;;;;29.12;28.82;101513.53;2105170;27;47516;-55
2022/07/13 04:07:33;;;;;;;;;7.50;7.50;;;;;29.11;28.77;101509.09;2102036;27;47705;-55
2022/07/13 04:08:33;;;;;;;;;5.25;5.25;;;;;29.11;28.94;101520.00;2104366;28;47378;-55
2022/07/13 04:09:33;;;;;;;;;6.25;6.00;;;;;29.10;28.90;101521.88;2104139;27;47239;-55
2022/07/13 04:10:34;;;;;;;;;5.50;5.50;;;;;29.10;28.99;101521.03;2104936;27;47855;-54
2022/07/13 04:11:34;;;;;;;;;7.25;7.25;;;;;29.08;28.77;101518.38;2104539;27;47780;-55
2022/07/13 04:12:35;;;;;;;;;7.00;6.00;;;;;29.09;29.08;101519.25;2104909;27;47538;-56
2022/07/13 04:13:36;;;;;;;;;8.50;8.25;;;;;29.07;28.75;101516.66;2104536;27;47866;-54
2022/07/13 04:14:36;;;;;;;;;8.00;6.80;;;;;29.08;29.23;101523.84;2106765;27;45696;-60
2022/07/13 04:15:36;;;;;;;;;7.00;6.00;;;;;29.07;29.13;101524.00;2105300;27;47882;-60
2022/07/13 04:16:37;;;;;;;;;8.00;8.00;;;;;29.06;29.09;101512.19;2105086;27;46643;-62
2022/07/13 04:17:41;;;;;;;;;6.00;6.00;;;;;29.05;29.10;101521.41;2100889;27;47854;-60
2022/07/13 04:18:42;;;;;;;;;8.60;8.00;;;;;29.03;29.09;101517.94;2104998;27;48073;-60
2022/07/13 04:19:42;;;;;;;;;9.00;8.25;;;;;29.01;29.09;101518.06;2105441;27;46580;-61
2022/07/13 04:20:42;;;;;;;;;6.75;6.50;;;;;29.01;29.25;101517.22;2105422;27;47072;-58
2022/07/13 04:21:43;;;;;;;;;7.50;5.75;;;;;29.00;29.17;101520.94;2104908;27;48265;-61
2022/07/13 04:22:43;;;;;;;;;8.00;8.00;;;;;28.99;29.21;101511.88;2083583;28;46938;-64
2022/07/13 04:23:43;;;;;;;;;8.00;7.00;;;;;28.98;29.55;101515.63;2086689;28;48284;-59
2022/07/13 04:24:45;;;;;;;;;5.50;5.50;;;;;28.98;29.19;101512.88;2100094;27;47830;-61
2022/07/13 04:25:45;;;;;;;;;6.00;6.00;;;;;28.97;29.58;101511.16;2101479;27;47617;-60
2022/07/13 04:26:45;;;;;;;;;10.25;8.50;;;;;28.96;29.71;101512.13;2101566;27;46629;-61
2022/07/13 04:27:46;;;;;;;;;8.50;7.25;;;;;28.94;29.37;101511.38;2101402;27;46942;-59
2022/07/13 04:28:46;;;;;;;;;10.25;8.50;;;;;28.94;29.53;101511.38;2105081;27;47692;-60
2022/07/13 04:29:46;;;;;;;;;6.00;6.00;;;;;28.93;29.64;101509.66;2104669;27;47670;-60
2022/07/13 04:30:47;;;;;;;;;8.25;8.00;;;;;28.92;29.47;101513.41;2104700;27;47915;-59
2022/07/13 04:31:47;;;;;;;;;8.25;7.00;;;;;28.91;29.48;101508.94;2104087;27;47482;-59
2022/07/13 04:32:48;;;;;;;;;6.50;6.00;;;;;28.92;29.59;101510.66;2104690;28;47666;-61
2022/07/13 04:33:48;;;;;;;;;9.25;9.25;;;;;28.91;29.83;101503.47;2104543;27;46418;-61
2022/07/13 04:34:49;;;;;;;;;8.25;7.75;;;;;28.92;29.51;101502.47;2104800;27;46781;-61
2022/07/13 04:36:10;;;;;;;;;8.40;6.20;;;;;28.94;29.54;101505.06;2104798;27;46161;-61
2022/07/13 04:37:30;;;;;;;;;7.80;7.80;;;;;28.93;29.88;101506.94;2092417;28;47309;-58
2022/07/13 04:38:50;;;;;;;;;6.80;6.80;;;;;28.94;29.78;101505.94;2095208;28;47301;-61
2022/07/13 04:39:52;;;;;;;;;6.00;6.00;;;;;28.93;29.90;101500.59;2096392;28;46842;-60
2022/07/13 04:40:54;;;;;;;;;7.60;7.60;;;;;28.93;29.74;101506.06;2095382;28;47678;-60
2022/07/13 04:41:54;;;;;;;;;7.75;7.75;;;;;28.92;29.82;101505.19;2094809;28;47624;-58
2022/07/13 04:42:54;;;;;;;;;5.75;5.75;;;;;28.92;29.73;101502.47;2104685;28;47848;-59